sensor_id;sensor_type;location;lat;lon;timestamp;pressure;altitude;pressure_sealevel;temperature;humidity
17855;BME280;9053;53.358;6.382;2023-02-24T00:01:12;101383.16;;;6.20;88.69
17855;BME280;9053;53.358;6.382;2023-02-24T00:03:51;101374.34;;;6.18;88.77
17855;BME280;9053;53.358;6.382;2023-02-24T00:06:26;101370.72;;;6.16;88.83
17855;BME280;9053;53.358;6.382;2023-02-24T00:09:02;101370.72;;;6.16;88.80
17855;BME280;9053;53.358;6.382;2023-02-24T00:11:39;101374.06;;;6.14;88.88
17855;BME280;9053;53.358;6.382;2023-02-24T00:14:13;101374.78;;;6.11;88.82
17855;BME280;9053;53.358;6.382;2023-02-24T00:16:45;101365.03;;;6.09;88.90
17855;BME280;9053;53.358;6.382;2023-02-24T00:19:20;101359.72;;;6.07;88.96
17855;BME280;9053;53.358;6.382;2023-02-24T00:21:53;101352.59;;;6.04;89.03
17855;BME280;9053;53.358;6.382;2023-02-24T00:24:24;101350.91;;;6.05;89.22
17855;BME280;9053;53.358;6.382;2023-02-24T00:26:56;101353.31;;;6.02;89.26
17855;BME280;9053;53.358;6.382;2023-02-24T00:29:28;101340.19;;;6.00;89.35
17855;BME280;9053;53.358;6.382;2023-02-24T00:31:58;101324.34;;;5.97;89.49
17855;BME280;9053;53.358;6.382;2023-02-24T00:34:34;101321.75;;;5.97;89.58
17855;BME280;9053;53.358;6.382;2023-02-24T00:37:07;101316.41;;;5.96;89.72
17855;BME280;9053;53.358;6.382;2023-02-24T00:39:38;101312.69;;;5.92;89.85
17855;BME280;9053;53.358;6.382;2023-02-24T00:42:10;101307.38;;;5.91;90.08
17855;BME280;9053;53.358;6.382;2023-02-24T00:44:43;101298.44;;;5.87;90.20
17855;BME280;9053;53.358;6.382;2023-02-24T00:47:15;101291.25;;;5.83;90.23
17855;BME280;9053;53.358;6.382;2023-02-24T00:49:45;101280.53;;;5.78;90.50
17855;BME280;9053;53.358;6.382;2023-02-24T00:52:19;101276.03;;;5.76;90.54
17855;BME280;9053;53.358;6.382;2023-02-24T00:54:53;101277.47;;;5.71;90.75
17855;BME280;9053;53.358;6.382;2023-02-24T00:57:24;101275.47;;;5.67;90.97
17855;BME280;9053;53.358;6.382;2023-02-24T00:59:54;101270.16;;;5.65;91.01
17855;BME280;9053;53.358;6.382;2023-02-24T01:02:24;101269.06;;;5.61;91.13
17855;BME280;9053;53.358;6.382;2023-02-24T01:04:54;101255.84;;;5.58;91.33
17855;BME280;9053;53.358;6.382;2023-02-24T01:07:28;101252.22;;;5.56;91.39
17855;BME280;9053;53.358;6.382;2023-02-24T01:09:58;101248.72;;;5.56;91.50
17855;BME280;9053;53.358;6.382;2023-02-24T01:12:28;101252.94;;;5.54;91.67
17855;BME280;9053;53.358;6.382;2023-02-24T01:15:06;101241.44;;;5.50;91.65
17855;BME280;9053;53.358;6.382;2023-02-24T01:17:37;101245.47;;;5.45;91.88
17855;BME280;9053;53.358;6.382;2023-02-24T01:20:08;101229.66;;;5.42;91.97
17855;BME280;9053;53.358;6.382;2023-02-24T01:22:48;101231.16;;;5.38;91.95
17855;BME280;9053;53.358;6.382;2023-02-24T01:25:19;101233.47;;;5.34;92.18
17855;BME280;9053;53.358;6.382;2023-02-24T01:27:49;101228.06;;;5.31;92.23
17855;BME280;9053;53.358;6.382;2023-02-24T01:30:19;101219.19;;;5.27;92.42
17855;BME280;9053;53.358;6.382;2023-02-24T01:32:49;101211.19;;;5.24;92.44
17855;BME280;9053;53.358;6.382;2023-02-24T01:35:19;101207.47;;;5.20;92.44
17855;BME280;9053;53.358;6.382;2023-02-24T01:37:52;101208.06;;;5.16;92.62
17855;BME280;9053;53.358;6.382;2023-02-24T01:40:22;101206.09;;;5.12;92.83
17855;BME280;9053;53.358;6.382;2023-02-24T01:42:53;101200.72;;;5.09;92.95
17855;BME280;9053;53.358;6.382;2023-02-24T01:45:26;101195.50;;;5.09;92.90
17855;BME280;9053;53.358;6.382;2023-02-24T01:48:04;101196.09;;;5.05;93.10
17855;BME280;9053;53.358;6.382;2023-02-24T01:50:36;101192.59;;;5.05;93.04
17855;BME280;9053;53.358;6.382;2023-02-24T01:53:09;101184.50;;;5.00;93.10
17855;BME280;9053;53.358;6.382;2023-02-24T01:55:42;101181.88;;;5.00;93.36
17855;BME280;9053;53.358;6.382;2023-02-24T01:58:20;101181.00;;;4.99;93.50
17855;BME280;9053;53.358;6.382;2023-02-24T02:00:51;101171.34;;;4.98;93.62
17855;BME280;9053;53.358;6.382;2023-02-24T02:03:24;101167.84;;;4.98;93.77
17855;BME280;9053;53.358;6.382;2023-02-24T02:05:59;101164.34;;;4.97;93.82
17855;BME280;9053;53.358;6.382;2023-02-24T02:08:34;101167.06;;;4.99;94.00
17855;BME280;9053;53.358;6.382;2023-02-24T02:11:07;101164.53;;;5.01;94.05
17855;BME280;9053;53.358;6.382;2023-02-24T02:13:41;101153.31;;;5.02;94.14
17855;BME280;9053;53.358;6.382;2023-02-24T02:16:35;101157.81;;;5.04;94.39
17855;BME280;9053;53.358;6.382;2023-02-24T02:22:36;101140.28;;;5.02;94.56
17855;BME280;9053;53.358;6.382;2023-02-24T02:25:17;101135.06;;;5.02;94.72
17855;BME280;9053;53.358;6.382;2023-02-24T02:30:51;101123.00;;;5.04;95.05
17855;BME280;9053;53.358;6.382;2023-02-24T02:36:40;101118.00;;;5.07;95.40
17855;BME280;9053;53.358;6.382;2023-02-24T02:39:17;101110.25;;;5.08;95.38
17855;BME280;9053;53.358;6.382;2023-02-24T02:41:52;101108.53;;;5.09;95.48
17855;BME280;9053;53.358;6.382;2023-02-24T02:44:33;101102.53;;;5.10;95.78
17855;BME280;9053;53.358;6.382;2023-02-24T02:47:10;101089.56;;;5.11;95.90
17855;BME280;9053;53.358;6.382;2023-02-24T02:49:48;101086.19;;;5.12;95.92
17855;BME280;9053;53.358;6.382;2023-02-24T02:52:25;101086.25;;;5.14;96.01
17855;BME280;9053;53.358;6.382;2023-02-24T02:55:00;101087.16;;;5.14;96.06
17855;BME280;9053;53.358;6.382;2023-02-24T02:57:34;101081.13;;;5.15;96.33
17855;BME280;9053;53.358;6.382;2023-02-24T03:00:10;101072.50;;;5.16;96.42
17855;BME280;9053;53.358;6.382;2023-02-24T03:02:50;101076.81;;;5.16;96.55
17855;BME280;9053;53.358;6.382;2023-02-24T03:05:27;101062.78;;;5.14;96.60
17855;BME280;9053;53.358;6.382;2023-02-24T03:08:01;101064.59;;;5.15;96.69
17855;BME280;9053;53.358;6.382;2023-02-24T03:10:39;101061.09;;;5.14;96.79
17855;BME280;9053;53.358;6.382;2023-02-24T03:13:11;101055.16;;;5.17;96.90
17855;BME280;9053;53.358;6.382;2023-02-24T03:15:43;101048.22;;;5.17;97.07
17855;BME280;9053;53.358;6.382;2023-02-24T03:18:18;101045.69;;;5.19;97.18
17855;BME280;9053;53.358;6.382;2023-02-24T03:21:01;101038.81;;;5.19;97.32
17855;BME280;9053;53.358;6.382;2023-02-24T03:23:36;101037.81;;;5.17;97.26
17855;BME280;9053;53.358;6.382;2023-02-24T03:26:14;101027.38;;;5.17;97.34
17855;BME280;9053;53.358;6.382;2023-02-24T03:28:56;101025.75;;;5.19;97.55
17855;BME280;9053;53.358;6.382;2023-02-24T03:31:31;101029.34;;;5.21;97.73
17855;BME280;9053;53.358;6.382;2023-02-24T03:34:06;101019.81;;;5.22;97.72
17855;BME280;9053;53.358;6.382;2023-02-24T03:36:41;101013.97;;;5.26;97.88
17855;BME280;9053;53.358;6.382;2023-02-24T03:39:11;101001.84;;;5.27;98.01
17855;BME280;9053;53.358;6.382;2023-02-24T03:41:45;101004.53;;;5.28;98.08
17855;BME280;9053;53.358;6.382;2023-02-24T03:44:19;101000.19;;;5.29;98.08
17855;BME280;9053;53.358;6.382;2023-02-24T03:46:50;100990.69;;;5.29;98.35
17855;BME280;9053;53.358;6.382;2023-02-24T03:49:22;100993.38;;;5.31;98.43
17855;BME280;9053;53.358;6.382;2023-02-24T03:52:05;100993.53;;;5.34;98.48
17855;BME280;9053;53.358;6.382;2023-02-24T03:54:54;100989.41;;;5.37;98.73
17855;BME280;9053;53.358;6.382;2023-02-24T03:57:36;100972.06;;;5.38;98.67
17855;BME280;9053;53.358;6.382;2023-02-24T04:00:23;100963.34;;;5.37;98.93
17855;BME280;9053;53.358;6.382;2023-02-24T04:03:08;100960.00;;;5.40;98.94
17855;BME280;9053;53.358;6.382;2023-02-24T04:05:45;100944.41;;;5.41;98.99
17855;BME280;9053;53.358;6.382;2023-02-24T04:08:21;100945.50;;;5.45;99.01
17855;BME280;9053;53.358;6.382;2023-02-24T04:10:59;100938.56;;;5.46;99.21
17855;BME280;9053;53.358;6.382;2023-02-24T04:13:34;100936.84;;;5.46;99.35
17855;BME280;9053;53.358;6.382;2023-02-24T04:16:09;100928.31;;;5.49;99.55
17855;BME280;9053;53.358;6.382;2023-02-24T04:18:47;100918.75;;;5.49;99.65
17855;BME280;9053;53.358;6.382;2023-02-24T04:21:19;100922.34;;;5.51;99.55
17855;BME280;9053;53.358;6.382;2023-02-24T04:23:54;100911.13;;;5.52;99.59
17855;BME280;9053;53.358;6.382;2023-02-24T04:26:25;100908.56;;;5.54;99.66
17855;BME280;9053;53.358;6.382;2023-02-24T04:28:56;100895.63;;;5.55;99.82
17855;BME280;9053;53.358;6.382;2023-02-24T04:31:27;100900.13;;;5.58;99.79
17855;BME280;9053;53.358;6.382;2023-02-24T04:33:59;100882.84;;;5.60;99.90
17855;BME280;9053;53.358;6.382;2023-02-24T04:36:33;100875.09;;;5.61;99.91
17855;BME280;9053;53.358;6.382;2023-02-24T04:39:06;100869.06;;;5.62;100.00
17855;BME280;9053;53.358;6.382;2023-02-24T04:41:37;100864.84;;;5.64;100.00
17855;BME280;9053;53.358;6.382;2023-02-24T04:44:07;100857.16;;;5.68;100.00
17855;BME280;9053;53.358;6.382;2023-02-24T04:46:36;100852.84;;;5.68;100.00
17855;BME280;9053;53.358;6.382;2023-02-24T04:49:06;100852.19;;;5.72;100.00
17855;BME280;9053;53.358;6.382;2023-02-24T04:51:37;100847.03;;;5.74;100.00
17855;BME280;9053;53.358;6.382;2023-02-24T04:54:12;100835.81;;;5.75;100.00
17855;BME280;9053;53.358;6.382;2023-02-24T04:56:43;100828.88;;;5.75;100.00
17855;BME280;9053;53.358;6.382;2023-02-24T04:59:15;100808.78;;;5.74;100.00
17855;BME280;9053;53.358;6.382;2023-02-24T05:01:45;100805.38;;;5.75;100.00
17855;BME280;9053;53.358;6.382;2023-02-24T05:04:17;100800.16;;;5.75;100.00
17855;BME280;9053;53.358;6.382;2023-02-24T05:06:47;100802.03;;;5.78;100.00
17855;BME280;9053;53.358;6.382;2023-02-24T05:09:19;100786.28;;;5.76;100.00
17855;BME280;9053;53.358;6.382;2023-02-24T05:11:51;100785.50;;;5.77;100.00
17855;BME280;9053;53.358;6.382;2023-02-24T05:14:21;100782.78;;;5.76;100.00
17855;BME280;9053;53.358;6.382;2023-02-24T05:16:51;100769.59;;;5.73;100.00
17855;BME280;9053;53.358;6.382;2023-02-24T05:19:26;100765.25;;;5.73;100.00
17855;BME280;9053;53.358;6.382;2023-02-24T05:22:08;100776.59;;;5.74;100.00
17855;BME280;9053;53.358;6.382;2023-02-24T05:24:42;100763.47;;;5.72;100.00
17855;BME280;9053;53.358;6.382;2023-02-24T05:27:13;100757.34;;;5.72;100.00
17855;BME280;9053;53.358;6.382;2023-02-24T05:29:43;100752.13;;;5.72;100.00
17855;BME280;9053;53.358;6.382;2023-02-24T05:32:15;100745.13;;;5.71;100.00
17855;BME280;9053;53.358;6.382;2023-02-24T05:34:45;100732.06;;;5.71;100.00
17855;BME280;9053;53.358;6.382;2023-02-24T05:37:15;100731.97;;;5.69;100.00
17855;BME280;9053;53.358;6.382;2023-02-24T05:39:47;100733.78;;;5.70;100.00
17855;BME280;9053;53.358;6.382;2023-02-24T05:42:17;100719.84;;;5.70;100.00
17855;BME280;9053;53.358;6.382;2023-02-24T05:44:47;100714.56;;;5.68;100.00
17855;BME280;9053;53.358;6.382;2023-02-24T05:47:17;100713.66;;;5.68;100.00
17855;BME280;9053;53.358;6.382;2023-02-24T05:49:49;100707.56;;;5.67;100.00
17855;BME280;9053;53.358;6.382;2023-02-24T05:52:22;100702.16;;;5.64;100.00
17855;BME280;9053;53.358;6.382;2023-02-24T05:54:55;100689.19;;;5.66;100.00
17855;BME280;9053;53.358;6.382;2023-02-24T05:57:26;100695.25;;;5.64;100.00
17855;BME280;9053;53.358;6.382;2023-02-24T06:00:02;100692.69;;;5.66;100.00
17855;BME280;9053;53.358;6.382;2023-02-24T06:02:42;100686.69;;;5.67;100.00
17855;BME280;9053;53.358;6.382;2023-02-24T06:05:16;100674.44;;;5.66;100.00
17855;BME280;9053;53.358;6.382;2023-02-24T06:07:55;100672.81;;;5.68;100.00
17855;BME280;9053;53.358;6.382;2023-02-24T06:10:34;100664.88;;;5.67;100.00
17855;BME280;9053;53.358;6.382;2023-02-24T06:13:04;100649.97;;;5.64;100.00
17855;BME280;9053;53.358;6.382;2023-02-24T06:15:36;100658.72;;;5.64;100.00
17855;BME280;9053;53.358;6.382;2023-02-24T06:18:07;100650.91;;;5.64;100.00
17855;BME280;9053;53.358;6.382;2023-02-24T06:20:37;100637.03;;;5.66;100.00
17855;BME280;9053;53.358;6.382;2023-02-24T06:23:07;100636.28;;;5.68;100.00
17855;BME280;9053;53.358;6.382;2023-02-24T06:25:40;100637.16;;;5.69;100.00
17855;BME280;9053;53.358;6.382;2023-02-24T06:28:10;100636.41;;;5.71;100.00
17855;BME280;9053;53.358;6.382;2023-02-24T06:30:39;100629.47;;;5.72;100.00
17855;BME280;9053;53.358;6.382;2023-02-24T06:33:09;100626.13;;;5.74;100.00
17855;BME280;9053;53.358;6.382;2023-02-24T06:35:39;100627.84;;;5.74;100.00
17855;BME280;9053;53.358;6.382;2023-02-24T06:38:09;100618.38;;;5.76;100.00
17855;BME280;9053;53.358;6.382;2023-02-24T06:40:43;100619.28;;;5.76;100.00
17855;BME280;9053;53.358;6.382;2023-02-24T06:43:13;100611.53;;;5.78;100.00
17855;BME280;9053;53.358;6.382;2023-02-24T06:45:43;100615.94;;;5.79;100.00
17855;BME280;9053;53.358;6.382;2023-02-24T06:48:13;100607.28;;;5.80;100.00
17855;BME280;9053;53.358;6.382;2023-02-24T06:50:43;100597.81;;;5.82;100.00
17855;BME280;9053;53.358;6.382;2023-02-24T06:53:14;100596.03;;;5.81;100.00
17855;BME280;9053;53.358;6.382;2023-02-24T06:55:47;100589.16;;;5.83;100.00
17855;BME280;9053;53.358;6.382;2023-02-24T06:58:18;100597.97;;;5.85;100.00
17855;BME280;9053;53.358;6.382;2023-02-24T07:00:51;100589.31;;;5.86;100.00
17855;BME280;9053;53.358;6.382;2023-02-24T07:03:26;100578.97;;;5.88;100.00
17855;BME280;9053;53.358;6.382;2023-02-24T07:06:06;100585.16;;;5.90;100.00
17855;BME280;9053;53.358;6.382;2023-02-24T07:08:56;100574.63;;;5.88;100.00
17855;BME280;9053;53.358;6.382;2023-02-24T07:11:34;100566.88;;;5.90;100.00
17855;BME280;9053;53.358;6.382;2023-02-24T07:14:04;100562.47;;;5.89;100.00
17855;BME280;9053;53.358;6.382;2023-02-24T07:16:34;100560.84;;;5.91;100.00
17855;BME280;9053;53.358;6.382;2023-02-24T07:19:10;100559.94;;;5.90;100.00
17855;BME280;9053;53.358;6.382;2023-02-24T07:21:42;100559.09;;;5.91;100.00
17855;BME280;9053;53.358;6.382;2023-02-24T07:24:18;100553.09;;;5.92;100.00
17855;BME280;9053;53.358;6.382;2023-02-24T07:26:58;100546.22;;;5.94;100.00
17855;BME280;9053;53.358;6.382;2023-02-24T07:29:29;100538.31;;;5.93;100.00
17855;BME280;9053;53.358;6.382;2023-02-24T07:32:01;100541.94;;;5.95;100.00
17855;BME280;9053;53.358;6.382;2023-02-24T07:34:32;100539.38;;;5.96;100.00
17855;BME280;9053;53.358;6.382;2023-02-24T07:37:06;100528.94;;;5.96;100.00
17855;BME280;9053;53.358;6.382;2023-02-24T07:39:38;100535.97;;;5.97;100.00
17855;BME280;9053;53.358;6.382;2023-02-24T07:42:11;100532.50;;;5.98;100.00
17855;BME280;9053;53.358;6.382;2023-02-24T07:44:41;100531.69;;;5.99;100.00
17855;BME280;9053;53.358;6.382;2023-02-24T07:47:15;100517.00;;;6.01;100.00
17855;BME280;9053;53.358;6.382;2023-02-24T07:49:47;100516.31;;;6.05;100.00
17855;BME280;9053;53.358;6.382;2023-02-24T07:52:17;100503.41;;;6.09;100.00
17855;BME280;9053;53.358;6.382;2023-02-24T07:54:47;100498.19;;;6.09;100.00
17855;BME280;9053;53.358;6.382;2023-02-24T07:57:19;100493.84;;;6.09;100.00
17855;BME280;9053;53.358;6.382;2023-02-24T07:59:50;100495.56;;;6.09;100.00
17855;BME280;9053;53.358;6.382;2023-02-24T08:02:21;100477.31;;;6.09;100.00
17855;BME280;9053;53.358;6.382;2023-02-24T08:04:51;100471.31;;;6.11;100.00
17855;BME280;9053;53.358;6.382;2023-02-24T08:07:20;100470.56;;;6.14;100.00
17855;BME280;9053;53.358;6.382;2023-02-24T08:09:56;100466.31;;;6.16;100.00
17855;BME280;9053;53.358;6.382;2023-02-24T08:12:41;100452.56;;;6.20;100.00
17855;BME280;9053;53.358;6.382;2023-02-24T08:15:13;100461.34;;;6.22;100.00
17855;BME280;9053;53.358;6.382;2023-02-24T08:17:52;100456.31;;;6.25;100.00
17855;BME280;9053;53.358;6.382;2023-02-24T08:20:26;100445.97;;;6.28;100.00
17855;BME280;9053;53.358;6.382;2023-02-24T08:23:04;100446.19;;;6.33;100.00
17855;BME280;9053;53.358;6.382;2023-02-24T08:25:36;100438.47;;;6.36;100.00
17855;BME280;9053;53.358;6.382;2023-02-24T08:28:13;100433.47;;;6.40;100.00
17855;BME280;9053;53.358;6.382;2023-02-24T08:30:43;100430.16;;;6.44;100.00
17855;BME280;9053;53.358;6.382;2023-02-24T08:33:18;100430.28;;;6.47;100.00
17855;BME280;9053;53.358;6.382;2023-02-24T08:35:51;100432.19;;;6.52;100.00
17855;BME280;9053;53.358;6.382;2023-02-24T08:38:29;100435.03;;;6.56;100.00
17855;BME280;9053;53.358;6.382;2023-02-24T08:41:10;100429.16;;;6.62;100.00
17855;BME280;9053;53.358;6.382;2023-02-24T08:43:47;100411.00;;;6.65;100.00
17855;BME280;9053;53.358;6.382;2023-02-24T08:46:19;100419.03;;;6.69;100.00
17855;BME280;9053;53.358;6.382;2023-02-24T08:48:54;100412.25;;;6.73;100.00
17855;BME280;9053;53.358;6.382;2023-02-24T08:51:28;100403.69;;;6.77;100.00
17855;BME280;9053;53.358;6.382;2023-02-24T08:54:03;100399.41;;;6.79;100.00
17855;BME280;9053;53.358;6.382;2023-02-24T08:56:37;100403.94;;;6.83;100.00
17855;BME280;9053;53.358;6.382;2023-02-24T08:59:13;100397.03;;;6.85;100.00
17855;BME280;9053;53.358;6.382;2023-02-24T09:01:58;100391.88;;;6.87;100.00
17855;BME280;9053;53.358;6.382;2023-02-24T09:04:40;100379.97;;;6.93;100.00
17855;BME280;9053;53.358;6.382;2023-02-24T09:07:13;100394.06;;;6.97;100.00
17855;BME280;9053;53.358;6.382;2023-02-24T09:09:43;100389.84;;;7.01;100.00
17855;BME280;9053;53.358;6.382;2023-02-24T09:12:13;100386.59;;;7.06;100.00
17855;BME280;9053;53.358;6.382;2023-02-24T09:14:55;100390.31;;;7.13;100.00
17855;BME280;9053;53.358;6.382;2023-02-24T09:17:29;100389.75;;;7.20;100.00
17855;BME280;9053;53.358;6.382;2023-02-24T09:20:27;100387.31;;;7.25;100.00
17855;BME280;9053;53.358;6.382;2023-02-24T09:23:17;100376.19;;;7.30;100.00
17855;BME280;9053;53.358;6.382;2023-02-24T09:25:56;100375.56;;;7.36;100.00
17855;BME280;9053;53.358;6.382;2023-02-24T09:28:37;100376.56;;;7.40;100.00
17855;BME280;9053;53.358;6.382;2023-02-24T09:31:17;100379.41;;;7.46;100.00
17855;BME280;9053;53.358;6.382;2023-02-24T09:33:50;100372.63;;;7.51;100.00
17855;BME280;9053;53.358;6.382;2023-02-24T09:36:20;100379.06;;;7.59;100.00
17855;BME280;9053;53.358;6.382;2023-02-24T09:38:55;100377.53;;;7.64;100.00
17855;BME280;9053;53.358;6.382;2023-02-24T09:41:40;100372.50;;;7.70;100.00
17855;BME280;9053;53.358;6.382;2023-02-24T09:44:29;100364.06;;;7.77;100.00
17855;BME280;9053;53.358;6.382;2023-02-24T09:47:11;100368.78;;;7.88;100.00
17855;BME280;9053;53.358;6.382;2023-02-24T09:49:51;100369.03;;;7.94;100.00
17855;BME280;9053;53.358;6.382;2023-02-24T09:52:30;100366.81;;;8.05;100.00
17855;BME280;9053;53.358;6.382;2023-02-24T09:55:16;100373.13;;;8.11;100.00
17855;BME280;9053;53.358;6.382;2023-02-24T09:57:58;100376.00;;;8.17;100.00
17855;BME280;9053;53.358;6.382;2023-02-24T10:00:49;100370.84;;;8.20;100.00
17855;BME280;9053;53.358;6.382;2023-02-24T10:03:28;100366.50;;;8.21;100.00
17855;BME280;9053;53.358;6.382;2023-02-24T10:06:17;100371.09;;;8.27;100.00
17855;BME280;9053;53.358;6.382;2023-02-24T10:08:52;100365.84;;;8.27;100.00
17855;BME280;9053;53.358;6.382;2023-02-24T10:11:23;100358.25;;;8.34;100.00
17855;BME280;9053;53.358;6.382;2023-02-24T10:14:04;100362.06;;;8.42;100.00
17855;BME280;9053;53.358;6.382;2023-02-24T10:16:38;100363.28;;;8.52;100.00
17855;BME280;9053;53.358;6.382;2023-02-24T10:19:28;100362.53;;;8.56;100.00
17855;BME280;9053;53.358;6.382;2023-02-24T10:22:04;100366.09;;;8.58;100.00
17855;BME280;9053;53.358;6.382;2023-02-24T10:24:40;100365.38;;;8.62;100.00
17855;BME280;9053;53.358;6.382;2023-02-24T10:27:16;100355.97;;;8.69;100.00
17855;BME280;9053;53.358;6.382;2023-02-24T10:29:57;100353.50;;;8.74;100.00
17855;BME280;9053;53.358;6.382;2023-02-24T10:32:37;100359.69;;;8.76;100.00
17855;BME280;9053;53.358;6.382;2023-02-24T10:35:17;100351.94;;;8.79;100.00
17855;BME280;9053;53.358;6.382;2023-02-24T10:37:52;100344.16;;;8.82;100.00
17855;BME280;9053;53.358;6.382;2023-02-24T10:40:31;100349.53;;;8.85;100.00
17855;BME280;9053;53.358;6.382;2023-02-24T10:43:15;100350.47;;;8.87;100.00
17855;BME280;9053;53.358;6.382;2023-02-24T10:45:58;100348.56;;;8.83;100.00
17855;BME280;9053;53.358;6.382;2023-02-24T10:48:50;100353.81;;;8.83;100.00
17855;BME280;9053;53.358;6.382;2023-02-24T10:51:31;100343.25;;;8.80;100.00
17855;BME280;9053;53.358;6.382;2023-02-24T10:54:10;100346.91;;;8.85;100.00
17855;BME280;9053;53.358;6.382;2023-02-24T10:56:52;100331.25;;;8.88;100.00
17855;BME280;9053;53.358;6.382;2023-02-24T10:59:52;100339.31;;;8.94;100.00
17855;BME280;9053;53.358;6.382;2023-02-24T11:02:46;100326.19;;;8.94;100.00
17855;BME280;9053;53.358;6.382;2023-02-24T11:05:37;100324.69;;;9.01;100.00
17855;BME280;9053;53.358;6.382;2023-02-24T11:08:14;100323.88;;;9.03;100.00
17855;BME280;9053;53.358;6.382;2023-02-24T11:11:08;100323.09;;;9.06;100.00
17855;BME280;9053;53.358;6.382;2023-02-24T11:13:49;100312.75;;;9.10;100.00
17855;BME280;9053;53.358;6.382;2023-02-24T11:16:41;100323.22;;;9.10;100.00
17855;BME280;9053;53.358;6.382;2023-02-24T11:19:27;100314.41;;;9.08;100.00
17855;BME280;9053;53.358;6.382;2023-02-24T11:21:58;100305.69;;;9.09;100.00
17855;BME280;9053;53.358;6.382;2023-02-24T11:24:30;100304.06;;;9.13;100.00
17855;BME280;9053;53.358;6.382;2023-02-24T11:27:02;100300.81;;;9.20;100.00
17855;BME280;9053;53.358;6.382;2023-02-24T11:29:44;100294.75;;;9.23;100.00
17855;BME280;9053;53.358;6.382;2023-02-24T11:32:32;100287.94;;;9.29;100.00
17855;BME280;9053;53.358;6.382;2023-02-24T11:35:12;100322.19;;;9.32;100.00
17855;BME280;9053;53.358;6.382;2023-02-24T11:37:57;100316.25;;;9.11;100.00
17855;BME280;9053;53.358;6.382;2023-02-24T11:40:36;100300.69;;;8.88;100.00
17855;BME280;9053;53.358;6.382;2023-02-24T11:43:11;100303.69;;;8.74;100.00
17855;BME280;9053;53.358;6.382;2023-02-24T11:45:46;100306.75;;;8.60;100.00
17855;BME280;9053;53.358;6.382;2023-02-24T11:48:19;100299.38;;;8.49;100.00
17855;BME280;9053;53.358;6.382;2023-02-24T11:50:53;100294.59;;;8.37;100.00
17855;BME280;9053;53.358;6.382;2023-02-24T11:53:27;100296.16;;;8.32;100.00
17855;BME280;9053;53.358;6.382;2023-02-24T11:56:06;100288.84;;;8.21;100.00
17855;BME280;9053;53.358;6.382;2023-02-24T12:01:12;100294.69;;;8.14;100.00
17855;BME280;9053;53.358;6.382;2023-02-24T12:03:50;100286.09;;;8.18;100.00
17855;BME280;9053;53.358;6.382;2023-02-24T12:06:24;100277.50;;;8.22;100.00
17855;BME280;9053;53.358;6.382;2023-02-24T12:09:00;100280.31;;;8.29;100.00
17855;BME280;9053;53.358;6.382;2023-02-24T12:11:42;100281.38;;;8.34;100.00
17855;BME280;9053;53.358;6.382;2023-02-24T12:14:20;100284.34;;;8.43;100.00
17855;BME280;9053;53.358;6.382;2023-02-24T12:16:58;100280.06;;;8.45;100.00
17855;BME280;9053;53.358;6.382;2023-02-24T12:19:46;100274.72;;;8.42;100.00
17855;BME280;9053;53.358;6.382;2023-02-24T12:22:23;100266.84;;;8.42;100.00
17855;BME280;9053;53.358;6.382;2023-02-24T12:24:55;100263.56;;;8.49;100.00
17855;BME280;9053;53.358;6.382;2023-02-24T12:27:37;100256.88;;;8.57;100.00
17855;BME280;9053;53.358;6.382;2023-02-24T12:30:28;100257.28;;;8.70;100.00
17855;BME280;9053;53.358;6.382;2023-02-24T12:33:36;100257.53;;;8.79;100.00
17855;BME280;9053;53.358;6.382;2023-02-24T12:36:19;100252.50;;;8.85;100.00
17855;BME280;9053;53.358;6.382;2023-02-24T12:39:02;100248.28;;;8.90;100.00
17855;BME280;9053;53.358;6.382;2023-02-24T12:41:47;100248.38;;;8.93;100.00
17855;BME280;9053;53.358;6.382;2023-02-24T12:44:30;100250.06;;;8.91;100.00
17855;BME280;9053;53.358;6.382;2023-02-24T12:47:09;100244.81;;;8.91;100.00
17855;BME280;9053;53.358;6.382;2023-02-24T12:49:53;100251.78;;;8.91;100.00
17855;BME280;9053;53.358;6.382;2023-02-24T12:52:32;100247.44;;;8.91;100.00
17855;BME280;9053;53.358;6.382;2023-02-24T12:55:09;100243.94;;;8.91;100.00
17855;BME280;9053;53.358;6.382;2023-02-24T12:57:45;100245.59;;;8.87;100.00
17855;BME280;9053;53.358;6.382;2023-02-24T13:00:24;100235.81;;;8.83;100.00
17855;BME280;9053;53.358;6.382;2023-02-24T13:03:06;100241.81;;;8.79;100.00
17855;BME280;9053;53.358;6.382;2023-02-24T13:05:41;100238.25;;;8.77;100.00
17855;BME280;9053;53.358;6.382;2023-02-24T13:08:23;100228.53;;;8.74;100.00
17855;BME280;9053;53.358;6.382;2023-02-24T13:11:02;100244.25;;;8.73;100.00
17855;BME280;9053;53.358;6.382;2023-02-24T13:13:41;100234.41;;;8.65;100.00
17855;BME280;9053;53.358;6.382;2023-02-24T13:16:26;100228.06;;;8.59;100.00
17855;BME280;9053;53.358;6.382;2023-02-24T13:19:16;100238.84;;;8.41;100.00
17855;BME280;9053;53.358;6.382;2023-02-24T13:22:00;100234.75;;;8.23;100.00
17855;BME280;9053;53.358;6.382;2023-02-24T13:24:33;100224.88;;;8.15;100.00
17855;BME280;9053;53.358;6.382;2023-02-24T13:27:16;100220.41;;;8.12;100.00
17855;BME280;9053;53.358;6.382;2023-02-24T13:29:51;100212.72;;;8.17;100.00
17855;BME280;9053;53.358;6.382;2023-02-24T13:32:28;100211.13;;;8.22;100.00
17855;BME280;9053;53.358;6.382;2023-02-24T13:35:01;100225.31;;;8.29;100.00
17855;BME280;9053;53.358;6.382;2023-02-24T13:37:34;100201.00;;;8.33;100.00
17855;BME280;9053;53.358;6.382;2023-02-24T13:40:23;100217.44;;;8.29;100.00
17855;BME280;9053;53.358;6.382;2023-02-24T13:42:58;100232.09;;;8.22;100.00
17855;BME280;9053;53.358;6.382;2023-02-24T13:45:29;100224.00;;;8.16;100.00
17855;BME280;9053;53.358;6.382;2023-02-24T13:48:20;100222.19;;;8.13;100.00
17855;BME280;9053;53.358;6.382;2023-02-24T13:51:17;100218.75;;;8.14;100.00
17855;BME280;9053;53.358;6.382;2023-02-24T13:54:02;100206.47;;;8.13;100.00
17855;BME280;9053;53.358;6.382;2023-02-24T13:56:39;100209.09;;;8.13;100.00
17855;BME280;9053;53.358;6.382;2023-02-24T13:59:27;100210.81;;;8.13;100.00
17855;BME280;9053;53.358;6.382;2023-02-24T14:02:06;100207.34;;;8.14;100.00